Virtual Norwegian is not affiliated with Norwegian Air Shuttle in any way.
If you are looking for the real "Norwegian", or you wish to book Norwegian flights, please visit Norwegian.com


We use cookies to ensure you get the best experience on our website.   ACCEPT

ESPA - LLA - Lulea (Kallax)

General Info Alternate Airport
ICAO: ESPA Elevation: 65 ft ICAO: ESNS
IATA: LLA Country: Sweden IATA: SFT
City: Lulea Charts: Log in to view charts City: Skelleftea
Name: Kallax Hub: No Name Skelleftea
General Info
ICAO: ESPA
IATA: LLA
City: Lulea
Name: Kallax
Elevation: 65 ft
Country: Sweden
Charts: Log in to view charts
Hub: No
 
Alternate Airport
ICAO: ESNS
IATA: SFT
City: Skelleftea
Name: Skelleftea

Weather
231450Z VRB01KT CAVOK M02/M03 Q1031
Weather
231450Z VRB01KT CAVOK M02/M03 Q1031

Runway Info
14
Length ILS/LOC Course
3350 m 110.30 129
32
Length ILS/LOC Course
3350 m 109.90 309

NOTAMs
NOTAMs currently unavailable.
NOTAMs
NOTAMs currently unavailable

Route map
Airport
Airport (hub)